createdAt,value
2022-11-03T00:17:40.608Z,11.8
2022-11-03T00:27:41.444Z,11.7
2022-11-03T00:37:41.844Z,11.7
2022-11-03T00:47:42.495Z,11.7
2022-11-03T00:57:42.579Z,11.6
2022-11-03T01:07:43.270Z,11.7
2022-11-03T01:17:43.686Z,11.7
2022-11-03T01:27:43.788Z,11.8
2022-11-03T01:37:43.936Z,11.8
2022-11-03T01:57:45.294Z,11.8
2022-11-03T02:07:45.569Z,11.8
2022-11-03T02:27:46.162Z,11.7
2022-11-03T02:37:46.246Z,11.7
2022-11-03T02:47:46.732Z,11.6
2022-11-03T02:57:47.452Z,11.8
2022-11-03T03:07:47.521Z,11.8
2022-11-03T03:17:47.846Z,11.9
2022-11-03T03:27:48.939Z,11.9
2022-11-03T03:47:49.970Z,11.9
2022-11-03T03:57:50.024Z,12
2022-11-03T04:17:50.644Z,11.9
2022-11-03T04:27:51.277Z,12
2022-11-03T04:37:51.665Z,12
2022-11-03T04:47:51.881Z,11.9
2022-11-03T04:57:52.053Z,11.8
2022-11-03T05:07:52.930Z,12.1
2022-11-03T05:18:00.873Z,12.1
2022-11-03T05:28:01.246Z,12.1
2022-11-03T05:37:54.451Z,12.2
2022-11-03T05:57:55.332Z,12.4
2022-11-03T06:07:55.841Z,12.5
2022-11-03T06:17:56.748Z,12.5
2022-11-03T06:27:57.349Z,12.7
2022-11-03T06:37:57.639Z,12.9
2022-11-03T06:47:57.912Z,13.3
2022-11-03T07:07:59.116Z,13
2022-11-03T07:17:59.632Z,13.2
2022-11-03T07:28:00.480Z,13.2
2022-11-03T07:38:01.215Z,13.2
2022-11-03T07:48:03.395Z,13.5
2022-11-03T07:58:02.335Z,13.4
2022-11-03T08:08:02.660Z,13.6
2022-11-03T08:18:03.676Z,13.9
2022-11-03T08:38:05.094Z,14.1
2022-11-03T08:48:05.670Z,14.2
2022-11-03T08:58:06.515Z,14.1
2022-11-03T09:18:08.585Z,14.4
2022-11-03T09:28:09.078Z,14.6
2022-11-03T09:38:15.970Z,14.9
2022-11-03T09:48:09.985Z,15.1
2022-11-03T09:58:10.722Z,15.3
2022-11-03T10:08:10.988Z,15.5
2022-11-03T10:18:11.478Z,15.6
2022-11-03T10:28:14.513Z,15.9
2022-11-03T10:38:17.857Z,16
2022-11-03T10:48:18.295Z,15.7
2022-11-03T10:58:26.110Z,15.8
2022-11-03T11:08:20.144Z,16
2022-11-03T11:28:21.301Z,15.9
2022-11-03T11:38:21.714Z,15.8
2022-11-03T11:48:22.013Z,17
2022-11-03T11:58:22.123Z,17.5
2022-11-03T12:18:23.103Z,18.2
2022-11-03T12:28:23.349Z,17.1
2022-11-03T12:38:23.601Z,17
2022-11-03T12:48:24.463Z,16.9
2022-11-03T12:58:24.485Z,16.8
2022-11-03T13:08:25.147Z,17
2022-11-03T13:18:25.396Z,16.9
2022-11-03T13:28:26.110Z,17
2022-11-03T13:38:27.291Z,16.7
2022-11-03T14:08:28.375Z,16
2022-11-03T14:18:28.987Z,16
2022-11-03T14:48:30.208Z,15.5
2022-11-03T15:08:31.015Z,15.5
2022-11-03T15:18:31.996Z,15.4
2022-11-03T15:28:32.976Z,15.4
2022-11-03T15:38:40.608Z,15.2
2022-11-03T15:48:34.712Z,14.9
2022-11-03T15:58:34.794Z,14.6
2022-11-03T16:08:34.846Z,14.7
2022-11-03T16:18:35.034Z,13.9
2022-11-03T16:28:35.214Z,13.7
2022-11-03T17:18:38.258Z,12.6
2022-11-03T17:48:39.913Z,12.2
2022-11-03T19:28:53.782Z,12.8
2022-11-03T19:38:47.292Z,12.8
2022-11-03T20:08:49.112Z,12.6
2022-11-03T20:18:49.315Z,12.4
2022-11-03T20:28:57.062Z,12.4
2022-11-03T20:38:57.880Z,12.4
2022-11-03T20:58:52.278Z,12.3
2022-11-03T21:08:52.497Z,12.3
2022-11-03T21:38:54.100Z,12.5
2022-11-03T22:08:55.381Z,12.6
2022-11-03T22:18:55.610Z,12.6
2022-11-03T22:38:56.821Z,12.4
2022-11-03T22:48:57.804Z,12.6
2022-11-03T22:58:57.818Z,12.7
2022-11-03T23:18:58.703Z,12.7
2022-11-03T23:39:00.288Z,12
2022-11-03T23:49:00.586Z,11.3
2022-11-03T23:59:01.019Z,11.2
